sensor_id;sensor_type;location;lat;lon;timestamp;pressure;altitude;pressure_sealevel;temperature;humidity
37858;BME280;23695;55.868;37.472;2022-08-14T00:00:28;99872.25;;;20.90;nan
37858;BME280;23695;55.868;37.472;2022-08-14T00:02:54;99868.72;;;20.89;nan
37858;BME280;23695;55.868;37.472;2022-08-14T00:05:21;99866.91;;;20.90;nan
37858;BME280;23695;55.868;37.472;2022-08-14T00:07:48;99866.69;;;20.93;nan
37858;BME280;23695;55.868;37.472;2022-08-14T00:10:17;99862.06;;;20.95;nan
37858;BME280;23695;55.868;37.472;2022-08-14T00:12:47;99868.91;;;20.99;nan
37858;BME280;23695;55.868;37.472;2022-08-14T00:15:18;99854.56;;;21.00;nan
37858;BME280;23695;55.868;37.472;2022-08-14T00:17:46;99864.31;;;21.01;nan
37858;BME280;23695;55.868;37.472;2022-08-14T00:20:12;99867.97;;;21.00;nan
37858;BME280;23695;55.868;37.472;2022-08-14T00:22:38;99858.94;;;21.01;nan
37858;BME280;23695;55.868;37.472;2022-08-14T00:25:05;99862.38;;;21.03;nan
37858;BME280;23695;55.868;37.472;2022-08-14T00:27:31;99858.72;;;21.04;nan
37858;BME280;23695;55.868;37.472;2022-08-14T00:29:57;99862.38;;;21.03;nan
37858;BME280;23695;55.868;37.472;2022-08-14T00:32:23;99865.16;;;21.02;nan
37858;BME280;23695;55.868;37.472;2022-08-14T00:34:48;99858.94;;;21.01;nan
37858;BME280;23695;55.868;37.472;2022-08-14T00:37:14;99857.25;;;21.00;nan
37858;BME280;23695;55.868;37.472;2022-08-14T00:39:40;99862.47;;;21.02;nan
37858;BME280;23695;55.868;37.472;2022-08-14T00:42:06;99857.97;;;21.02;nan
37858;BME280;23695;55.868;37.472;2022-08-14T00:44:32;99857.00;;;21.03;nan
37858;BME280;23695;55.868;37.472;2022-08-14T00:47:02;99853.59;;;21.01;nan
37858;BME280;23695;55.868;37.472;2022-08-14T00:49:33;99859.91;;;21.00;nan
37858;BME280;23695;55.868;37.472;2022-08-14T00:51:59;99852.97;;;20.98;nan
37858;BME280;23695;55.868;37.472;2022-08-14T00:54:25;99858.31;;;20.98;nan
37858;BME280;23695;55.868;37.472;2022-08-14T00:56:52;99857.44;;;20.97;nan
37858;BME280;23695;55.868;37.472;2022-08-14T00:59:18;99852.09;;;20.97;nan
37858;BME280;23695;55.868;37.472;2022-08-14T01:01:44;99857.44;;;20.97;nan
37858;BME280;23695;55.868;37.472;2022-08-14T01:04:10;99852.97;;;20.98;nan
37858;BME280;23695;55.868;37.472;2022-08-14T01:06:37;99861.00;;;20.98;nan
37858;BME280;23695;55.868;37.472;2022-08-14T01:09:03;99850.28;;;20.98;nan
37858;BME280;23695;55.868;37.472;2022-08-14T01:11:30;99865.63;;;20.96;nan
37858;BME280;23695;55.868;37.472;2022-08-14T01:13:56;99859.38;;;20.95;nan
37858;BME280;23695;55.868;37.472;2022-08-14T01:16:25;99861.34;;;20.93;nan
37858;BME280;23695;55.868;37.472;2022-08-14T01:18:51;99863.13;;;20.93;nan
37858;BME280;23695;55.868;37.472;2022-08-14T01:21:37;99866.78;;;20.92;nan
37858;BME280;23695;55.868;37.472;2022-08-14T01:24:07;99863.47;;;20.88;nan
37858;BME280;23695;55.868;37.472;2022-08-14T01:26:34;99867.13;;;20.87;nan
37858;BME280;23695;55.868;37.472;2022-08-14T01:29:01;99863.69;;;20.85;nan
37858;BME280;23695;55.868;37.472;2022-08-14T01:31:32;99863.91;;;20.82;nan
37858;BME280;23695;55.868;37.472;2022-08-14T01:34:00;99860.50;;;20.80;nan
37858;BME280;23695;55.868;37.472;2022-08-14T01:36:28;99860.50;;;20.80;nan
37858;BME280;23695;55.868;37.472;2022-08-14T01:39:06;99864.03;;;20.80;nan
37858;BME280;23695;55.868;37.472;2022-08-14T01:41:33;99864.13;;;20.79;nan
37858;BME280;23695;55.868;37.472;2022-08-14T01:44:05;99859.63;;;20.79;nan
37858;BME280;23695;55.868;37.472;2022-08-14T01:46:32;99858.88;;;20.77;nan
37858;BME280;23695;55.868;37.472;2022-08-14T01:48:59;99869.59;;;20.77;nan
37858;BME280;23695;55.868;37.472;2022-08-14T01:51:28;99867.53;;;20.81;nan
37858;BME280;23695;55.868;37.472;2022-08-14T01:53:57;99868.53;;;20.80;nan
37858;BME280;23695;55.868;37.472;2022-08-14T01:56:29;99876.56;;;20.80;nan
37858;BME280;23695;55.868;37.472;2022-08-14T01:59:17;99878.50;;;20.78;nan
37858;BME280;23695;55.868;37.472;2022-08-14T02:01:48;99876.78;;;20.77;nan
37858;BME280;23695;55.868;37.472;2022-08-14T02:04:17;99877.75;;;20.76;nan
37858;BME280;23695;55.868;37.472;2022-08-14T02:06:47;99868.00;;;20.75;nan
37858;BME280;23695;55.868;37.472;2022-08-14T02:09:15;99874.44;;;20.72;nan
37858;BME280;23695;55.868;37.472;2022-08-14T02:11:41;99877.00;;;20.74;nan
37858;BME280;23695;55.868;37.472;2022-08-14T02:14:09;99873.38;;;20.75;nan
37858;BME280;23695;55.868;37.472;2022-08-14T02:16:39;99878.72;;;20.75;nan
37858;BME280;23695;55.868;37.472;2022-08-14T02:19:20;99880.41;;;20.76;nan
37858;BME280;23695;55.868;37.472;2022-08-14T02:21:51;99876.91;;;20.75;nan
37858;BME280;23695;55.868;37.472;2022-08-14T02:24:23;99873.13;;;20.78;nan
37858;BME280;23695;55.868;37.472;2022-08-14T02:26:50;99878.28;;;20.81;nan
37858;BME280;23695;55.868;37.472;2022-08-14T02:29:22;99879.88;;;20.83;nan
37858;BME280;23695;55.868;37.472;2022-08-14T02:31:50;99877.63;;;20.90;nan
37858;BME280;23695;55.868;37.472;2022-08-14T02:34:26;99888.88;;;20.95;nan
37858;BME280;23695;55.868;37.472;2022-08-14T02:37:02;99889.41;;;21.00;nan
37858;BME280;23695;55.868;37.472;2022-08-14T02:39:30;99885.53;;;21.04;nan
37858;BME280;23695;55.868;37.472;2022-08-14T02:41:57;99882.09;;;21.15;nan
37858;BME280;23695;55.868;37.472;2022-08-14T02:44:23;99885.78;;;21.38;nan
37858;BME280;23695;55.868;37.472;2022-08-14T02:46:51;99876.16;;;21.60;nan
37858;BME280;23695;55.868;37.472;2022-08-14T02:49:18;99885.72;;;21.64;nan
37858;BME280;23695;55.868;37.472;2022-08-14T02:51:52;99880.94;;;21.91;nan
37858;BME280;23695;55.868;37.472;2022-08-14T02:54:19;99882.38;;;22.20;nan
37858;BME280;23695;55.868;37.472;2022-08-14T02:56:48;99883.81;;;22.36;nan
37858;BME280;23695;55.868;37.472;2022-08-14T02:59:15;99885.94;;;23.00;nan
37858;BME280;23695;55.868;37.472;2022-08-14T03:01:42;99890.59;;;23.76;nan
37858;BME280;23695;55.868;37.472;2022-08-14T03:04:09;99884.72;;;24.45;nan
37858;BME280;23695;55.868;37.472;2022-08-14T03:06:36;99882.06;;;25.47;nan
37858;BME280;23695;55.868;37.472;2022-08-14T03:09:04;99881.53;;;26.60;nan
37858;BME280;23695;55.868;37.472;2022-08-14T03:11:30;99877.44;;;27.67;nan
37858;BME280;23695;55.868;37.472;2022-08-14T03:13:56;99880.66;;;28.68;nan
37858;BME280;23695;55.868;37.472;2022-08-14T03:16:24;99884.66;;;29.59;nan
37858;BME280;23695;55.868;37.472;2022-08-14T03:18:52;99872.13;;;30.56;nan
37858;BME280;23695;55.868;37.472;2022-08-14T03:21:22;99876.19;;;31.24;nan
37858;BME280;23695;55.868;37.472;2022-08-14T03:23:50;99879.38;;;31.90;nan
37858;BME280;23695;55.868;37.472;2022-08-14T03:26:18;99881.41;;;31.96;nan
37858;BME280;23695;55.868;37.472;2022-08-14T03:28:47;99879.94;;;32.09;nan
37858;BME280;23695;55.868;37.472;2022-08-14T03:31:13;99876.41;;;32.23;nan
37858;BME280;23695;55.868;37.472;2022-08-14T03:33:40;99877.50;;;32.14;nan
37858;BME280;23695;55.868;37.472;2022-08-14T03:36:08;99876.69;;;32.66;nan
37858;BME280;23695;55.868;37.472;2022-08-14T03:38:37;99875.34;;;32.62;nan
37858;BME280;23695;55.868;37.472;2022-08-14T03:41:27;99874.81;;;33.26;nan
37858;BME280;23695;55.868;37.472;2022-08-14T03:43:56;99878.94;;;33.73;nan
37858;BME280;23695;55.868;37.472;2022-08-14T03:46:30;99874.63;;;34.07;nan
37858;BME280;23695;55.868;37.472;2022-08-14T03:48:56;99880.53;;;34.53;nan
37858;BME280;23695;55.868;37.472;2022-08-14T03:51:23;99878.34;;;35.05;nan
37858;BME280;23695;55.868;37.472;2022-08-14T03:53:55;99871.00;;;35.67;nan
37858;BME280;23695;55.868;37.472;2022-08-14T03:56:25;99868.94;;;35.89;nan
37858;BME280;23695;55.868;37.472;2022-08-14T03:59:00;99868.94;;;35.83;nan
37858;BME280;23695;55.868;37.472;2022-08-14T04:01:37;99868.75;;;36.44;nan
37858;BME280;23695;55.868;37.472;2022-08-14T04:04:07;99870.25;;;37.32;nan
37858;BME280;23695;55.868;37.472;2022-08-14T04:06:34;99864.50;;;37.47;nan
37858;BME280;23695;55.868;37.472;2022-08-14T04:09:05;99872.69;;;37.60;nan
37858;BME280;23695;55.868;37.472;2022-08-14T04:11:32;99867.75;;;37.69;nan
37858;BME280;23695;55.868;37.472;2022-08-14T04:13:59;99871.72;;;38.11;nan
37858;BME280;23695;55.868;37.472;2022-08-14T04:16:25;99864.66;;;38.65;nan
37858;BME280;23695;55.868;37.472;2022-08-14T04:18:53;99869.84;;;39.66;nan
37858;BME280;23695;55.868;37.472;2022-08-14T04:21:21;99866.44;;;39.82;nan
37858;BME280;23695;55.868;37.472;2022-08-14T04:23:49;99869.88;;;40.20;nan
37858;BME280;23695;55.868;37.472;2022-08-14T04:26:16;99869.13;;;40.01;nan
37858;BME280;23695;55.868;37.472;2022-08-14T04:28:44;99867.13;;;40.20;nan
37858;BME280;23695;55.868;37.472;2022-08-14T04:31:11;99868.44;;;39.26;nan
37858;BME280;23695;55.868;37.472;2022-08-14T04:33:37;99864.72;;;39.02;nan
37858;BME280;23695;55.868;37.472;2022-08-14T04:36:04;99869.31;;;37.06;nan
37858;BME280;23695;55.868;37.472;2022-08-14T04:38:30;99870.53;;;35.09;nan
37858;BME280;23695;55.868;37.472;2022-08-14T04:41:14;99885.16;;;33.01;nan
37858;BME280;23695;55.868;37.472;2022-08-14T04:44:19;99883.59;;;30.99;nan
37858;BME280;23695;55.868;37.472;2022-08-14T04:46:45;99888.75;;;29.79;nan
37858;BME280;23695;55.868;37.472;2022-08-14T04:49:31;99895.53;;;28.90;nan
37858;BME280;23695;55.868;37.472;2022-08-14T04:51:58;99896.69;;;28.35;nan
37858;BME280;23695;55.868;37.472;2022-08-14T04:54:25;99886.28;;;27.87;nan
37858;BME280;23695;55.868;37.472;2022-08-14T04:56:54;99892.28;;;27.45;nan
37858;BME280;23695;55.868;37.472;2022-08-14T04:59:21;99884.94;;;27.27;nan
37858;BME280;23695;55.868;37.472;2022-08-14T05:01:47;99887.34;;;27.03;nan
37858;BME280;23695;55.868;37.472;2022-08-14T05:04:13;99889.38;;;26.91;nan
37858;BME280;23695;55.868;37.472;2022-08-14T05:06:40;99884.50;;;26.57;nan
37858;BME280;23695;55.868;37.472;2022-08-14T05:09:06;99887.53;;;26.34;nan
37858;BME280;23695;55.868;37.472;2022-08-14T05:11:32;99890.94;;;26.17;nan
37858;BME280;23695;55.868;37.472;2022-08-14T05:14:01;99888.97;;;26.00;nan
37858;BME280;23695;55.868;37.472;2022-08-14T05:16:27;99888.81;;;25.91;nan
37858;BME280;23695;55.868;37.472;2022-08-14T05:18:56;99885.56;;;25.88;nan
37858;BME280;23695;55.868;37.472;2022-08-14T05:21:22;99883.56;;;25.90;nan
37858;BME280;23695;55.868;37.472;2022-08-14T05:23:49;99887.81;;;26.02;nan
37858;BME280;23695;55.868;37.472;2022-08-14T05:26:16;99878.38;;;26.45;nan
37858;BME280;23695;55.868;37.472;2022-08-14T05:28:47;99872.81;;;29.92;nan
37858;BME280;23695;55.868;37.472;2022-08-14T05:31:14;99867.19;;;34.16;nan
37858;BME280;23695;55.868;37.472;2022-08-14T05:33:45;99862.09;;;37.12;nan
37858;BME280;23695;55.868;37.472;2022-08-14T05:36:12;99853.28;;;40.08;nan
37858;BME280;23695;55.868;37.472;2022-08-14T05:38:43;99857.84;;;42.62;nan
37858;BME280;23695;55.868;37.472;2022-08-14T05:41:16;99854.50;;;44.77;nan
37858;BME280;23695;55.868;37.472;2022-08-14T05:43:43;99857.69;;;46.15;nan
37858;BME280;23695;55.868;37.472;2022-08-14T05:46:11;99856.72;;;46.92;nan
37858;BME280;23695;55.868;37.472;2022-08-14T05:48:38;99852.25;;;47.51;nan
37858;BME280;23695;55.868;37.472;2022-08-14T05:51:04;99853.16;;;47.80;nan
37858;BME280;23695;55.868;37.472;2022-08-14T05:53:30;99875.59;;;48.97;nan
37858;BME280;23695;55.868;37.472;2022-08-14T05:55:56;99861.66;;;49.73;nan
37858;BME280;23695;55.868;37.472;2022-08-14T05:58:24;99859.19;;;49.85;nan
37858;BME280;23695;55.868;37.472;2022-08-14T06:00:50;99855.13;;;49.59;nan
37858;BME280;23695;55.868;37.472;2022-08-14T06:03:20;99854.03;;;49.92;nan
37858;BME280;23695;55.868;37.472;2022-08-14T06:05:49;99850.13;;;50.40;nan
37858;BME280;23695;55.868;37.472;2022-08-14T06:08:19;99848.53;;;50.81;nan
37858;BME280;23695;55.868;37.472;2022-08-14T06:10:45;99847.53;;;51.27;nan
37858;BME280;23695;55.868;37.472;2022-08-14T06:13:12;99846.31;;;51.19;nan
37858;BME280;23695;55.868;37.472;2022-08-14T06:15:38;99847.69;;;52.34;nan
37858;BME280;23695;55.868;37.472;2022-08-14T06:18:06;99838.63;;;52.77;nan
37858;BME280;23695;55.868;37.472;2022-08-14T06:20:32;99837.91;;;52.63;nan
37858;BME280;23695;55.868;37.472;2022-08-14T06:22:58;99836.84;;;52.81;nan
37858;BME280;23695;55.868;37.472;2022-08-14T06:25:25;99839.19;;;52.17;nan
37858;BME280;23695;55.868;37.472;2022-08-14T06:27:51;99845.50;;;53.02;nan
37858;BME280;23695;55.868;37.472;2022-08-14T06:30:20;99840.91;;;53.24;nan
37858;BME280;23695;55.868;37.472;2022-08-14T06:32:46;99846.69;;;53.19;nan
37858;BME280;23695;55.868;37.472;2022-08-14T06:35:13;99841.00;;;52.93;nan
37858;BME280;23695;55.868;37.472;2022-08-14T06:37:57;99846.31;;;52.46;nan
37858;BME280;23695;55.868;37.472;2022-08-14T06:40:28;99845.41;;;51.46;nan
37858;BME280;23695;55.868;37.472;2022-08-14T06:42:56;99853.16;;;50.99;nan
37858;BME280;23695;55.868;37.472;2022-08-14T06:45:22;99850.66;;;50.42;nan
37858;BME280;23695;55.868;37.472;2022-08-14T06:47:48;99846.31;;;50.36;nan
37858;BME280;23695;55.868;37.472;2022-08-14T06:50:18;99846.69;;;49.97;nan
37858;BME280;23695;55.868;37.472;2022-08-14T06:52:44;99841.34;;;51.52;nan
37858;BME280;23695;55.868;37.472;2022-08-14T06:55:11;99838.06;;;53.15;nan
37858;BME280;23695;55.868;37.472;2022-08-14T06:57:43;99847.78;;;54.40;nan
37858;BME280;23695;55.868;37.472;2022-08-14T07:00:18;99844.06;;;55.58;nan
37858;BME280;23695;55.868;37.472;2022-08-14T07:02:45;99849.13;;;54.25;nan
37858;BME280;23695;55.868;37.472;2022-08-14T07:05:29;99844.91;;;53.66;nan
37858;BME280;23695;55.868;37.472;2022-08-14T07:08:19;99847.38;;;53.51;nan
37858;BME280;23695;55.868;37.472;2022-08-14T07:10:48;99845.13;;;54.43;nan
37858;BME280;23695;55.868;37.472;2022-08-14T07:13:15;99849.00;;;56.03;nan
37858;BME280;23695;55.868;37.472;2022-08-14T07:15:45;99835.53;;;56.95;nan
37858;BME280;23695;55.868;37.472;2022-08-14T07:18:13;99833.91;;;55.78;nan
37858;BME280;23695;55.868;37.472;2022-08-14T07:20:40;99834.44;;;55.38;nan
37858;BME280;23695;55.868;37.472;2022-08-14T07:23:08;99829.69;;;56.18;nan
37858;BME280;23695;55.868;37.472;2022-08-14T07:25:36;99836.56;;;54.90;nan
37858;BME280;23695;55.868;37.472;2022-08-14T07:30:38;99828.38;;;52.81;nan
37858;BME280;23695;55.868;37.472;2022-08-14T07:33:05;99835.66;;;54.39;nan
37858;BME280;23695;55.868;37.472;2022-08-14T07:35:32;99840.06;;;54.11;nan
37858;BME280;23695;55.868;37.472;2022-08-14T07:37:58;99835.28;;;54.88;nan
37858;BME280;23695;55.868;37.472;2022-08-14T07:40:24;99832.31;;;53.20;nan
37858;BME280;23695;55.868;37.472;2022-08-14T07:42:51;99828.69;;;54.75;nan
37858;BME280;23695;55.868;37.472;2022-08-14T07:45:18;99829.38;;;56.44;nan
37858;BME280;23695;55.868;37.472;2022-08-14T07:47:43;99840.84;;;56.14;nan
37858;BME280;23695;55.868;37.472;2022-08-14T07:50:13;99828.41;;;57.54;nan
37858;BME280;23695;55.868;37.472;2022-08-14T07:52:41;99826.22;;;59.22;nan
37858;BME280;23695;55.868;37.472;2022-08-14T07:55:07;99832.38;;;58.09;nan
37858;BME280;23695;55.868;37.472;2022-08-14T07:57:33;99829.25;;;55.61;nan
37858;BME280;23695;55.868;37.472;2022-08-14T08:00:00;99826.81;;;54.49;nan
37858;BME280;23695;55.868;37.472;2022-08-14T08:02:29;99830.22;;;51.47;nan
37858;BME280;23695;55.868;37.472;2022-08-14T08:04:56;99832.03;;;45.88;nan
37858;BME280;23695;55.868;37.472;2022-08-14T08:07:25;99833.84;;;42.17;nan
37858;BME280;23695;55.868;37.472;2022-08-14T08:09:55;99839.34;;;39.61;nan
37858;BME280;23695;55.868;37.472;2022-08-14T08:12:23;99849.81;;;37.21;nan
37858;BME280;23695;55.868;37.472;2022-08-14T08:14:50;99840.00;;;35.73;nan
37858;BME280;23695;55.868;37.472;2022-08-14T08:17:17;99847.13;;;35.00;nan
37858;BME280;23695;55.868;37.472;2022-08-14T08:19:45;99846.31;;;33.93;nan
37858;BME280;23695;55.868;37.472;2022-08-14T08:22:14;99842.94;;;33.18;nan
37858;BME280;23695;55.868;37.472;2022-08-14T08:24:40;99841.44;;;32.41;nan
37858;BME280;23695;55.868;37.472;2022-08-14T08:27:16;99845.97;;;32.11;nan
37858;BME280;23695;55.868;37.472;2022-08-14T08:29:42;99845.31;;;31.63;nan
37858;BME280;23695;55.868;37.472;2022-08-14T08:32:08;99851.13;;;31.60;nan
37858;BME280;23695;55.868;37.472;2022-08-14T08:34:45;99843.25;;;31.42;nan
37858;BME280;23695;55.868;37.472;2022-08-14T08:37:12;99839.34;;;30.97;nan
37858;BME280;23695;55.868;37.472;2022-08-14T08:39:43;99843.47;;;30.85;nan
37858;BME280;23695;55.868;37.472;2022-08-14T08:42:09;99843.81;;;30.82;nan
37858;BME280;23695;55.868;37.472;2022-08-14T08:44:35;99842.81;;;30.66;nan
37858;BME280;23695;55.868;37.472;2022-08-14T08:47:01;99842.03;;;30.49;nan
37858;BME280;23695;55.868;37.472;2022-08-14T08:49:39;99830.81;;;30.44;nan
37858;BME280;23695;55.868;37.472;2022-08-14T08:52:07;99828.97;;;30.28;nan
37858;BME280;23695;55.868;37.472;2022-08-14T08:54:33;99826.22;;;30.45;nan
37858;BME280;23695;55.868;37.472;2022-08-14T08:56:59;99835.38;;;30.60;nan
37858;BME280;23695;55.868;37.472;2022-08-14T08:59:27;99819.91;;;30.61;nan
37858;BME280;23695;55.868;37.472;2022-08-14T09:04:24;99829.41;;;30.57;nan
37858;BME280;23695;55.868;37.472;2022-08-14T09:06:51;99815.56;;;30.27;nan
37858;BME280;23695;55.868;37.472;2022-08-14T09:09:28;99815.69;;;30.25;nan
37858;BME280;23695;55.868;37.472;2022-08-14T09:11:55;99812.97;;;30.17;nan
37858;BME280;23695;55.868;37.472;2022-08-14T09:14:26;99814.13;;;30.47;nan
37858;BME280;23695;55.868;37.472;2022-08-14T09:16:56;99819.69;;;30.70;nan
37858;BME280;23695;55.868;37.472;2022-08-14T09:19:22;99822.44;;;30.62;nan
37858;BME280;23695;55.868;37.472;2022-08-14T09:21:48;99824.13;;;30.63;nan
37858;BME280;23695;55.868;37.472;2022-08-14T09:24:14;99824.72;;;30.34;nan
37858;BME280;23695;55.868;37.472;2022-08-14T09:26:42;99811.88;;;30.59;nan
37858;BME280;23695;55.868;37.472;2022-08-14T09:29:09;99822.50;;;30.46;nan
37858;BME280;23695;55.868;37.472;2022-08-14T09:31:37;99814.66;;;30.51;nan
37858;BME280;23695;55.868;37.472;2022-08-14T09:34:20;99810.22;;;30.50;nan
37858;BME280;23695;55.868;37.472;2022-08-14T09:42:25;99801.78;;;30.76;nan
37858;BME280;23695;55.868;37.472;2022-08-14T09:45:11;99804.81;;;30.98;nan
37858;BME280;23695;55.868;37.472;2022-08-14T09:50:22;99797.75;;;31.11;nan
37858;BME280;23695;55.868;37.472;2022-08-14T09:52:52;99805.00;;;30.88;nan
37858;BME280;23695;55.868;37.472;2022-08-14T09:55:20;99797.44;;;31.06;nan
37858;BME280;23695;55.868;37.472;2022-08-14T09:57:47;99809.38;;;31.05;nan
37858;BME280;23695;55.868;37.472;2022-08-14T10:00:13;99808.38;;;31.29;nan
37858;BME280;23695;55.868;37.472;2022-08-14T10:02:51;99802.31;;;31.96;nan
37858;BME280;23695;55.868;37.472;2022-08-14T10:05:33;99788.91;;;32.39;nan
37858;BME280;23695;55.868;37.472;2022-08-14T10:08:01;99792.72;;;32.53;nan
37858;BME280;23695;55.868;37.472;2022-08-14T10:10:36;99797.41;;;32.74;nan
37858;BME280;23695;55.868;37.472;2022-08-14T10:13:05;99802.56;;;32.99;nan
37858;BME280;23695;55.868;37.472;2022-08-14T10:15:32;99795.88;;;32.87;nan
37858;BME280;23695;55.868;37.472;2022-08-14T10:18:08;99793.16;;;32.87;nan
37858;BME280;23695;55.868;37.472;2022-08-14T10:20:58;99797.78;;;32.86;nan
37858;BME280;23695;55.868;37.472;2022-08-14T10:23:26;99801.06;;;32.67;nan
37858;BME280;23695;55.868;37.472;2022-08-14T10:25:57;99803.69;;;32.45;nan
37858;BME280;23695;55.868;37.472;2022-08-14T10:28:41;99803.13;;;32.50;nan
37858;BME280;23695;55.868;37.472;2022-08-14T10:31:27;99794.59;;;32.53;nan
37858;BME280;23695;55.868;37.472;2022-08-14T10:34:10;99801.44;;;32.49;nan
37858;BME280;23695;55.868;37.472;2022-08-14T10:39:21;99797.09;;;32.39;nan
37858;BME280;23695;55.868;37.472;2022-08-14T10:41:48;99787.22;;;32.38;nan
37858;BME280;23695;55.868;37.472;2022-08-14T10:44:37;99797.28;;;32.38;nan
37858;BME280;23695;55.868;37.472;2022-08-14T10:47:05;99791.34;;;31.58;nan
37858;BME280;23695;55.868;37.472;2022-08-14T10:49:36;99794.81;;;31.52;nan
37858;BME280;23695;55.868;37.472;2022-08-14T10:52:10;99787.03;;;31.41;nan
37858;BME280;23695;55.868;37.472;2022-08-14T10:54:39;99786.72;;;31.36;nan
37858;BME280;23695;55.868;37.472;2022-08-14T10:57:21;99793.47;;;31.48;nan
37858;BME280;23695;55.868;37.472;2022-08-14T11:02:35;99794.69;;;31.14;nan
37858;BME280;23695;55.868;37.472;2022-08-14T11:07:29;99785.81;;;31.44;nan
37858;BME280;23695;55.868;37.472;2022-08-14T11:09:58;99783.91;;;31.52;nan
37858;BME280;23695;55.868;37.472;2022-08-14T11:12:25;99784.19;;;31.57;nan
37858;BME280;23695;55.868;37.472;2022-08-14T11:14:53;99780.66;;;31.72;nan
37858;BME280;23695;55.868;37.472;2022-08-14T11:17:19;99784.72;;;31.76;nan
37858;BME280;23695;55.868;37.472;2022-08-14T11:19:46;99779.13;;;31.54;nan
37858;BME280;23695;55.868;37.472;2022-08-14T11:22:13;99786.25;;;31.55;nan
37858;BME280;23695;55.868;37.472;2022-08-14T11:24:43;99781.41;;;31.66;nan
37858;BME280;23695;55.868;37.472;2022-08-14T11:27:13;99785.66;;;31.45;nan
37858;BME280;23695;55.868;37.472;2022-08-14T11:29:42;99786.88;;;31.34;nan
37858;BME280;23695;55.868;37.472;2022-08-14T11:32:08;99782.63;;;31.32;nan
37858;BME280;23695;55.868;37.472;2022-08-14T11:34:37;99780.28;;;31.29;nan
37858;BME280;23695;55.868;37.472;2022-08-14T11:37:10;99770.47;;;31.20;nan
37858;BME280;23695;55.868;37.472;2022-08-14T11:39:35;99781.41;;;31.11;nan
37858;BME280;23695;55.868;37.472;2022-08-14T11:42:06;99781.94;;;30.67;nan
37858;BME280;23695;55.868;37.472;2022-08-14T11:44:32;99786.75;;;30.49;nan
37858;BME280;23695;55.868;37.472;2022-08-14T11:46:58;99793.28;;;30.31;nan
37858;BME280;23695;55.868;37.472;2022-08-14T11:49:26;99789.56;;;30.00;nan
37858;BME280;23695;55.868;37.472;2022-08-14T11:51:53;99777.31;;;29.96;nan
37858;BME280;23695;55.868;37.472;2022-08-14T11:54:20;99782.72;;;30.12;nan
37858;BME280;23695;55.868;37.472;2022-08-14T11:56:46;99774.56;;;30.37;nan
37858;BME280;23695;55.868;37.472;2022-08-14T11:59:18;99769.41;;;30.50;nan
37858;BME280;23695;55.868;37.472;2022-08-14T12:01:47;99769.16;;;30.68;nan
37858;BME280;23695;55.868;37.472;2022-08-14T12:04:17;99769.63;;;30.80;nan
37858;BME280;23695;55.868;37.472;2022-08-14T12:06:54;99764.84;;;30.90;nan
37858;BME280;23695;55.868;37.472;2022-08-14T12:11:53;99767.41;;;30.44;nan
37858;BME280;23695;55.868;37.472;2022-08-14T12:14:20;99770.16;;;30.27;nan
37858;BME280;23695;55.868;37.472;2022-08-14T12:17:06;99769.16;;;30.04;nan
37858;BME280;23695;55.868;37.472;2022-08-14T12:19:44;99758.59;;;30.09;nan
37858;BME280;23695;55.868;37.472;2022-08-14T12:22:10;99755.28;;;30.54;nan
37858;BME280;23695;55.868;37.472;2022-08-14T12:24:36;99758.72;;;30.88;nan
37858;BME280;23695;55.868;37.472;2022-08-14T12:27:02;99751.97;;;30.84;nan
37858;BME280;23695;55.868;37.472;2022-08-14T12:29:28;99753.38;;;30.63;nan
37858;BME280;23695;55.868;37.472;2022-08-14T12:31:58;99755.47;;;30.45;nan
37858;BME280;23695;55.868;37.472;2022-08-14T12:34:30;99750.03;;;30.45;nan
37858;BME280;23695;55.868;37.472;2022-08-14T12:37:07;99742.38;;;30.48;nan
37858;BME280;23695;55.868;37.472;2022-08-14T12:39:34;99744.78;;;30.43;nan
37858;BME280;23695;55.868;37.472;2022-08-14T12:42:01;99743.19;;;30.57;nan
37858;BME280;23695;55.868;37.472;2022-08-14T12:44:35;99742.84;;;30.60;nan
37858;BME280;23695;55.868;37.472;2022-08-14T12:47:13;99742.25;;;30.73;nan
37858;BME280;23695;55.868;37.472;2022-08-14T12:49:52;99744.75;;;30.83;nan
37858;BME280;23695;55.868;37.472;2022-08-14T12:52:33;99744.47;;;30.77;nan
37858;BME280;23695;55.868;37.472;2022-08-14T12:55:03;99740.31;;;30.98;nan
37858;BME280;23695;55.868;37.472;2022-08-14T12:57:50;99738.13;;;30.93;nan
37858;BME280;23695;55.868;37.472;2022-08-14T13:00:19;99741.88;;;31.15;nan
37858;BME280;23695;55.868;37.472;2022-08-14T13:02:48;99732.59;;;31.33;nan
37858;BME280;23695;55.868;37.472;2022-08-14T13:05:15;99735.94;;;31.35;nan
37858;BME280;23695;55.868;37.472;2022-08-14T13:07:42;99738.63;;;31.20;nan
37858;BME280;23695;55.868;37.472;2022-08-14T13:10:09;99738.38;;;31.30;nan
37858;BME280;23695;55.868;37.472;2022-08-14T13:12:37;99725.78;;;31.29;nan
37858;BME280;23695;55.868;37.472;2022-08-14T13:15:05;99730.16;;;31.38;nan
37858;BME280;23695;55.868;37.472;2022-08-14T13:17:35;99734.88;;;31.21;nan
37858;BME280;23695;55.868;37.472;2022-08-14T13:20:03;99731.22;;;31.06;nan
37858;BME280;23695;55.868;37.472;2022-08-14T13:22:30;99729.91;;;31.25;nan
37858;BME280;23695;55.868;37.472;2022-08-14T13:24:57;99723.78;;;31.23;nan
37858;BME280;23695;55.868;37.472;2022-08-14T13:27:24;99728.75;;;30.96;nan
37858;BME280;23695;55.868;37.472;2022-08-14T13:29:51;99722.69;;;30.86;nan
37858;BME280;23695;55.868;37.472;2022-08-14T13:32:18;99720.00;;;30.69;nan
37858;BME280;23695;55.868;37.472;2022-08-14T13:34:47;99721.22;;;30.67;nan
37858;BME280;23695;55.868;37.472;2022-08-14T13:37:15;99722.41;;;30.64;nan
37858;BME280;23695;55.868;37.472;2022-08-14T13:39:52;99725.56;;;30.45;nan
37858;BME280;23695;55.868;37.472;2022-08-14T13:42:20;99736.19;;;29.25;nan
37858;BME280;23695;55.868;37.472;2022-08-14T13:44:51;99731.22;;;28.53;nan